sensor_id;sensor_type;location;lat;lon;timestamp;P1;durP1;ratioP1;P2;durP2;ratioP2
21251;SDS011;10784;50.578;17.878;2023-02-01T00:00:26;3.90;;;1.20;;
21251;SDS011;10784;50.578;17.878;2023-02-01T00:03:19;1.67;;;1.20;;
21251;SDS011;10784;50.578;17.878;2023-02-01T00:05:55;1.77;;;1.08;;
21251;SDS011;10784;50.578;17.878;2023-02-01T00:08:29;1.00;;;0.60;;
21251;SDS011;10784;50.578;17.878;2023-02-01T00:11:05;0.45;;;0.45;;
21251;SDS011;10784;50.578;17.878;2023-02-01T00:13:39;1.10;;;0.93;;
21251;SDS011;10784;50.578;17.878;2023-02-01T00:16:13;1.00;;;0.50;;
21251;SDS011;10784;50.578;17.878;2023-02-01T00:18:51;2.70;;;0.82;;
21251;SDS011;10784;50.578;17.878;2023-02-01T00:21:24;0.57;;;0.57;;
21251;SDS011;10784;50.578;17.878;2023-02-01T00:23:56;1.00;;;1.00;;
21251;SDS011;10784;50.578;17.878;2023-02-01T00:26:37;2.97;;;0.70;;
21251;SDS011;10784;50.578;17.878;2023-02-01T00:29:11;2.30;;;1.63;;
21251;SDS011;10784;50.578;17.878;2023-02-01T00:31:44;1.17;;;1.08;;
21251;SDS011;10784;50.578;17.878;2023-02-01T00:34:17;5.97;;;1.10;;
21251;SDS011;10784;50.578;17.878;2023-02-01T00:36:50;1.33;;;1.23;;
21251;SDS011;10784;50.578;17.878;2023-02-01T00:39:23;8.35;;;2.15;;
21251;SDS011;10784;50.578;17.878;2023-02-01T00:41:56;3.47;;;1.95;;
21251;SDS011;10784;50.578;17.878;2023-02-01T00:44:28;6.30;;;1.65;;
21251;SDS011;10784;50.578;17.878;2023-02-01T00:47:05;5.07;;;1.70;;
21251;SDS011;10784;50.578;17.878;2023-02-01T00:49:38;4.88;;;1.23;;
21251;SDS011;10784;50.578;17.878;2023-02-01T00:52:11;2.08;;;1.55;;
21251;SDS011;10784;50.578;17.878;2023-02-01T00:54:43;2.70;;;1.10;;
21251;SDS011;10784;50.578;17.878;2023-02-01T00:57:16;0.68;;;0.65;;
21251;SDS011;10784;50.578;17.878;2023-02-01T00:59:49;0.60;;;0.60;;
21251;SDS011;10784;50.578;17.878;2023-02-01T01:02:23;0.50;;;0.50;;
21251;SDS011;10784;50.578;17.878;2023-02-01T01:05:00;0.45;;;0.45;;
21251;SDS011;10784;50.578;17.878;2023-02-01T01:07:33;0.75;;;0.60;;
21251;SDS011;10784;50.578;17.878;2023-02-01T01:10:06;1.75;;;0.70;;
21251;SDS011;10784;50.578;17.878;2023-02-01T01:12:39;0.70;;;0.70;;
21251;SDS011;10784;50.578;17.878;2023-02-01T01:15:13;0.50;;;0.50;;
21251;SDS011;10784;50.578;17.878;2023-02-01T01:17:45;0.50;;;0.50;;
21251;SDS011;10784;50.578;17.878;2023-02-01T01:20:18;1.35;;;0.63;;
21251;SDS011;10784;50.578;17.878;2023-02-01T01:22:58;1.08;;;0.98;;
21251;SDS011;10784;50.578;17.878;2023-02-01T01:25:32;1.05;;;0.60;;
21251;SDS011;10784;50.578;17.878;2023-02-01T01:28:05;0.68;;;0.68;;
21251;SDS011;10784;50.578;17.878;2023-02-01T01:30:38;1.05;;;0.52;;
21251;SDS011;10784;50.578;17.878;2023-02-01T01:33:14;1.00;;;1.00;;
21251;SDS011;10784;50.578;17.878;2023-02-01T01:35:47;1.75;;;0.70;;
21251;SDS011;10784;50.578;17.878;2023-02-01T01:38:20;0.60;;;0.50;;
21251;SDS011;10784;50.578;17.878;2023-02-01T01:40:55;2.80;;;0.80;;
21251;SDS011;10784;50.578;17.878;2023-02-01T01:46:41;0.90;;;0.70;;
21251;SDS011;10784;50.578;17.878;2023-02-01T01:49:16;2.17;;;0.90;;
21251;SDS011;10784;50.578;17.878;2023-02-01T01:51:54;4.05;;;1.20;;
21251;SDS011;10784;50.578;17.878;2023-02-01T01:54:33;0.88;;;0.85;;
21251;SDS011;10784;50.578;17.878;2023-02-01T01:57:09;1.25;;;0.60;;
21251;SDS011;10784;50.578;17.878;2023-02-01T01:59:46;10.95;;;0.90;;
21251;SDS011;10784;50.578;17.878;2023-02-01T02:02:21;1.27;;;0.73;;
21251;SDS011;10784;50.578;17.878;2023-02-01T02:04:54;10.32;;;4.25;;
21251;SDS011;10784;50.578;17.878;2023-02-01T02:07:28;2.72;;;1.35;;
21251;SDS011;10784;50.578;17.878;2023-02-01T02:10:07;1.75;;;1.30;;
21251;SDS011;10784;50.578;17.878;2023-02-01T02:12:46;4.45;;;1.70;;
21251;SDS011;10784;50.578;17.878;2023-02-01T02:15:20;2.70;;;1.70;;
21251;SDS011;10784;50.578;17.878;2023-02-01T02:18:07;2.17;;;1.50;;
21251;SDS011;10784;50.578;17.878;2023-02-01T02:20:52;1.52;;;1.05;;
21251;SDS011;10784;50.578;17.878;2023-02-01T02:34:32;17.75;;;4.93;;
21251;SDS011;10784;50.578;17.878;2023-02-01T02:42:34;0.63;;;0.63;;
21251;SDS011;10784;50.578;17.878;2023-02-01T02:45:41;4.03;;;1.02;;
21251;SDS011;10784;50.578;17.878;2023-02-01T02:48:55;2.88;;;0.88;;
21251;SDS011;10784;50.578;17.878;2023-02-01T02:51:35;2.05;;;0.75;;
21251;SDS011;10784;50.578;17.878;2023-02-01T02:54:31;2.30;;;1.00;;
21251;SDS011;10784;50.578;17.878;2023-02-01T03:00:19;3.80;;;1.05;;
21251;SDS011;10784;50.578;17.878;2023-02-01T03:03:15;1.00;;;0.90;;
21251;SDS011;10784;50.578;17.878;2023-02-01T03:06:14;3.42;;;1.35;;
21251;SDS011;10784;50.578;17.878;2023-02-01T03:08:53;2.33;;;1.92;;
21251;SDS011;10784;50.578;17.878;2023-02-01T03:11:30;2.05;;;1.63;;
21251;SDS011;10784;50.578;17.878;2023-02-01T03:14:24;1.73;;;1.55;;
21251;SDS011;10784;50.578;17.878;2023-02-01T03:16:59;3.72;;;1.58;;
21251;SDS011;10784;50.578;17.878;2023-02-01T03:19:37;2.50;;;1.30;;
21251;SDS011;10784;50.578;17.878;2023-02-01T03:22:23;1.08;;;1.00;;
21251;SDS011;10784;50.578;17.878;2023-02-01T03:25:00;3.83;;;1.45;;
21251;SDS011;10784;50.578;17.878;2023-02-01T03:27:35;0.73;;;0.73;;
21251;SDS011;10784;50.578;17.878;2023-02-01T03:32:57;3.97;;;2.58;;
21251;SDS011;10784;50.578;17.878;2023-02-01T03:35:45;1.80;;;1.55;;
21251;SDS011;10784;50.578;17.878;2023-02-01T03:38:23;1.35;;;1.02;;
21251;SDS011;10784;50.578;17.878;2023-02-01T03:41:01;2.65;;;0.90;;
21251;SDS011;10784;50.578;17.878;2023-02-01T03:43:37;1.75;;;1.00;;
21251;SDS011;10784;50.578;17.878;2023-02-01T03:46:16;2.20;;;1.30;;
21251;SDS011;10784;50.578;17.878;2023-02-01T03:48:51;1.00;;;0.85;;
21251;SDS011;10784;50.578;17.878;2023-02-01T03:51:25;1.42;;;1.25;;
21251;SDS011;10784;50.578;17.878;2023-02-01T03:53:58;4.10;;;0.88;;
21251;SDS011;10784;50.578;17.878;2023-02-01T03:56:31;7.88;;;1.27;;
21251;SDS011;10784;50.578;17.878;2023-02-01T03:59:05;2.78;;;1.17;;
21251;SDS011;10784;50.578;17.878;2023-02-01T04:01:40;2.22;;;1.48;;
21251;SDS011;10784;50.578;17.878;2023-02-01T04:04:13;4.05;;;1.10;;
21251;SDS011;10784;50.578;17.878;2023-02-01T04:06:55;1.70;;;1.58;;
21251;SDS011;10784;50.578;17.878;2023-02-01T04:09:30;6.50;;;2.15;;
21251;SDS011;10784;50.578;17.878;2023-02-01T04:12:02;1.27;;;1.17;;
21251;SDS011;10784;50.578;17.878;2023-02-01T04:14:35;8.80;;;1.63;;
21251;SDS011;10784;50.578;17.878;2023-02-01T04:17:08;7.45;;;3.53;;
21251;SDS011;10784;50.578;17.878;2023-02-01T04:19:41;5.13;;;3.15;;
21251;SDS011;10784;50.578;17.878;2023-02-01T04:22:14;7.82;;;3.42;;
21251;SDS011;10784;50.578;17.878;2023-02-01T04:24:45;4.10;;;2.38;;
21251;SDS011;10784;50.578;17.878;2023-02-01T04:27:18;13.70;;;3.75;;
21251;SDS011;10784;50.578;17.878;2023-02-01T04:29:50;11.02;;;3.70;;
21251;SDS011;10784;50.578;17.878;2023-02-01T04:32:23;6.85;;;3.22;;
21251;SDS011;10784;50.578;17.878;2023-02-01T04:34:56;2.03;;;1.77;;
21251;SDS011;10784;50.578;17.878;2023-02-01T04:37:29;7.50;;;2.50;;
21251;SDS011;10784;50.578;17.878;2023-02-01T04:40:02;3.78;;;2.15;;
21251;SDS011;10784;50.578;17.878;2023-02-01T04:42:35;13.32;;;6.28;;
21251;SDS011;10784;50.578;17.878;2023-02-01T04:45:08;13.85;;;6.95;;
21251;SDS011;10784;50.578;17.878;2023-02-01T04:47:41;9.30;;;4.35;;
21251;SDS011;10784;50.578;17.878;2023-02-01T04:50:14;11.82;;;3.97;;
21251;SDS011;10784;50.578;17.878;2023-02-01T04:52:47;7.40;;;3.15;;
21251;SDS011;10784;50.578;17.878;2023-02-01T04:55:20;12.65;;;5.55;;
21251;SDS011;10784;50.578;17.878;2023-02-01T04:57:52;5.05;;;3.45;;
21251;SDS011;10784;50.578;17.878;2023-02-01T05:00:25;14.05;;;5.18;;
21251;SDS011;10784;50.578;17.878;2023-02-01T05:02:58;9.90;;;3.60;;
21251;SDS011;10784;50.578;17.878;2023-02-01T05:05:31;24.90;;;8.55;;
21251;SDS011;10784;50.578;17.878;2023-02-01T05:08:04;32.42;;;7.03;;
21251;SDS011;10784;50.578;17.878;2023-02-01T05:10:37;20.25;;;5.75;;
21251;SDS011;10784;50.578;17.878;2023-02-01T05:13:09;58.70;;;13.68;;
21251;SDS011;10784;50.578;17.878;2023-02-01T05:16:01;44.00;;;9.93;;
21251;SDS011;10784;50.578;17.878;2023-02-01T05:18:34;61.03;;;16.85;;
21251;SDS011;10784;50.578;17.878;2023-02-01T05:21:07;18.98;;;6.70;;
21251;SDS011;10784;50.578;17.878;2023-02-01T05:23:40;4.32;;;2.85;;
21251;SDS011;10784;50.578;17.878;2023-02-01T05:26:31;8.23;;;1.98;;
21251;SDS011;10784;50.578;17.878;2023-02-01T05:29:04;2.20;;;1.50;;
21251;SDS011;10784;50.578;17.878;2023-02-01T05:31:38;1.77;;;1.17;;
21251;SDS011;10784;50.578;17.878;2023-02-01T05:34:11;5.80;;;2.35;;
21251;SDS011;10784;50.578;17.878;2023-02-01T05:36:44;13.25;;;1.95;;
21251;SDS011;10784;50.578;17.878;2023-02-01T05:39:16;1.45;;;0.95;;
21251;SDS011;10784;50.578;17.878;2023-02-01T05:41:49;6.38;;;2.08;;
21251;SDS011;10784;50.578;17.878;2023-02-01T05:44:22;5.43;;;2.00;;
21251;SDS011;10784;50.578;17.878;2023-02-01T05:46:55;3.17;;;1.75;;
21251;SDS011;10784;50.578;17.878;2023-02-01T05:49:28;2.83;;;1.02;;
21251;SDS011;10784;50.578;17.878;2023-02-01T05:52:01;6.97;;;1.15;;
21251;SDS011;10784;50.578;17.878;2023-02-01T05:54:33;2.75;;;1.60;;
21251;SDS011;10784;50.578;17.878;2023-02-01T05:57:06;1.98;;;1.17;;
21251;SDS011;10784;50.578;17.878;2023-02-01T05:59:39;1.50;;;1.33;;
21251;SDS011;10784;50.578;17.878;2023-02-01T06:02:17;3.55;;;1.42;;
21251;SDS011;10784;50.578;17.878;2023-02-01T06:04:50;2.05;;;1.58;;
21251;SDS011;10784;50.578;17.878;2023-02-01T06:07:23;3.22;;;0.95;;
21251;SDS011;10784;50.578;17.878;2023-02-01T06:09:55;4.07;;;1.58;;
21251;SDS011;10784;50.578;17.878;2023-02-01T06:12:28;3.53;;;1.98;;
21251;SDS011;10784;50.578;17.878;2023-02-01T06:15:01;3.13;;;1.67;;
21251;SDS011;10784;50.578;17.878;2023-02-01T06:17:34;7.45;;;2.83;;
21251;SDS011;10784;50.578;17.878;2023-02-01T06:20:07;13.73;;;3.20;;
21251;SDS011;10784;50.578;17.878;2023-02-01T06:22:43;5.45;;;2.22;;
21251;SDS011;10784;50.578;17.878;2023-02-01T06:25:15;21.02;;;4.15;;
21251;SDS011;10784;50.578;17.878;2023-02-01T06:27:49;17.13;;;5.30;;
21251;SDS011;10784;50.578;17.878;2023-02-01T06:30:22;8.32;;;3.45;;
21251;SDS011;10784;50.578;17.878;2023-02-01T06:32:55;11.95;;;3.92;;
21251;SDS011;10784;50.578;17.878;2023-02-01T06:35:28;5.10;;;3.63;;
21251;SDS011;10784;50.578;17.878;2023-02-01T06:38:01;8.25;;;3.47;;
21251;SDS011;10784;50.578;17.878;2023-02-01T06:40:33;7.35;;;3.03;;
21251;SDS011;10784;50.578;17.878;2023-02-01T06:43:07;4.45;;;2.58;;
21251;SDS011;10784;50.578;17.878;2023-02-01T06:45:40;4.38;;;1.60;;
21251;SDS011;10784;50.578;17.878;2023-02-01T06:48:14;6.97;;;2.78;;
21251;SDS011;10784;50.578;17.878;2023-02-01T06:50:47;8.98;;;1.63;;
21251;SDS011;10784;50.578;17.878;2023-02-01T06:53:19;7.40;;;2.25;;
21251;SDS011;10784;50.578;17.878;2023-02-01T06:55:53;8.02;;;2.22;;
21251;SDS011;10784;50.578;17.878;2023-02-01T06:58:29;12.30;;;2.58;;
21251;SDS011;10784;50.578;17.878;2023-02-01T07:01:05;2.38;;;1.30;;
21251;SDS011;10784;50.578;17.878;2023-02-01T07:03:39;8.05;;;2.05;;
21251;SDS011;10784;50.578;17.878;2023-02-01T07:06:11;7.07;;;1.80;;
21251;SDS011;10784;50.578;17.878;2023-02-01T07:08:44;9.35;;;2.55;;
21251;SDS011;10784;50.578;17.878;2023-02-01T07:11:18;10.02;;;1.40;;
21251;SDS011;10784;50.578;17.878;2023-02-01T07:13:51;20.30;;;2.80;;
21251;SDS011;10784;50.578;17.878;2023-02-01T07:16:23;3.40;;;1.35;;
21251;SDS011;10784;50.578;17.878;2023-02-01T07:18:56;2.60;;;1.60;;
21251;SDS011;10784;50.578;17.878;2023-02-01T07:21:29;6.85;;;2.25;;
21251;SDS011;10784;50.578;17.878;2023-02-01T07:24:02;11.25;;;5.40;;
21251;SDS011;10784;50.578;17.878;2023-02-01T07:26:35;7.13;;;2.53;;
21251;SDS011;10784;50.578;17.878;2023-02-01T07:29:08;5.32;;;2.97;;
21251;SDS011;10784;50.578;17.878;2023-02-01T07:31:41;14.25;;;3.00;;
21251;SDS011;10784;50.578;17.878;2023-02-01T07:34:14;7.13;;;3.33;;
21251;SDS011;10784;50.578;17.878;2023-02-01T07:36:46;25.80;;;6.40;;
21251;SDS011;10784;50.578;17.878;2023-02-01T07:39:19;27.98;;;2.90;;
21251;SDS011;10784;50.578;17.878;2023-02-01T07:41:52;7.97;;;2.58;;
21251;SDS011;10784;50.578;17.878;2023-02-01T07:44:25;2.97;;;1.80;;
21251;SDS011;10784;50.578;17.878;2023-02-01T07:46:57;5.38;;;2.65;;
21251;SDS011;10784;50.578;17.878;2023-02-01T07:49:31;6.05;;;1.90;;
21251;SDS011;10784;50.578;17.878;2023-02-01T07:52:03;13.80;;;3.67;;
21251;SDS011;10784;50.578;17.878;2023-02-01T07:54:36;3.88;;;1.45;;
21251;SDS011;10784;50.578;17.878;2023-02-01T07:57:09;3.92;;;1.58;;
21251;SDS011;10784;50.578;17.878;2023-02-01T07:59:44;2.80;;;1.23;;
21251;SDS011;10784;50.578;17.878;2023-02-01T08:02:43;4.60;;;2.20;;
21251;SDS011;10784;50.578;17.878;2023-02-01T08:05:16;3.22;;;1.67;;
21251;SDS011;10784;50.578;17.878;2023-02-01T08:07:49;3.55;;;1.60;;
21251;SDS011;10784;50.578;17.878;2023-02-01T08:10:22;2.30;;;1.60;;
21251;SDS011;10784;50.578;17.878;2023-02-01T08:12:58;5.03;;;2.58;;
21251;SDS011;10784;50.578;17.878;2023-02-01T08:15:32;4.53;;;2.35;;
21251;SDS011;10784;50.578;17.878;2023-02-01T08:18:05;6.10;;;1.55;;
21251;SDS011;10784;50.578;17.878;2023-02-01T08:20:38;1.15;;;1.05;;
21251;SDS011;10784;50.578;17.878;2023-02-01T08:23:13;3.13;;;1.75;;
21251;SDS011;10784;50.578;17.878;2023-02-01T08:25:46;4.05;;;2.38;;
21251;SDS011;10784;50.578;17.878;2023-02-01T08:28:19;4.97;;;2.15;;
21251;SDS011;10784;50.578;17.878;2023-02-01T08:30:53;12.07;;;4.75;;
21251;SDS011;10784;50.578;17.878;2023-02-01T08:33:26;10.02;;;5.30;;
21251;SDS011;10784;50.578;17.878;2023-02-01T08:36:00;25.40;;;8.65;;
21251;SDS011;10784;50.578;17.878;2023-02-01T08:38:34;37.85;;;11.55;;
21251;SDS011;10784;50.578;17.878;2023-02-01T08:41:08;21.48;;;6.72;;
21251;SDS011;10784;50.578;17.878;2023-02-01T08:43:41;35.53;;;11.43;;
21251;SDS011;10784;50.578;17.878;2023-02-01T08:46:14;15.68;;;4.55;;
21251;SDS011;10784;50.578;17.878;2023-02-01T08:48:48;9.50;;;3.58;;
21251;SDS011;10784;50.578;17.878;2023-02-01T08:51:21;9.00;;;3.28;;
21251;SDS011;10784;50.578;17.878;2023-02-01T08:53:54;6.15;;;2.65;;
21251;SDS011;10784;50.578;17.878;2023-02-01T08:56:27;7.45;;;2.35;;
21251;SDS011;10784;50.578;17.878;2023-02-01T08:59:00;11.68;;;2.70;;
21251;SDS011;10784;50.578;17.878;2023-02-01T09:01:33;6.38;;;2.47;;
21251;SDS011;10784;50.578;17.878;2023-02-01T09:04:05;7.10;;;3.00;;
21251;SDS011;10784;50.578;17.878;2023-02-01T09:06:40;5.05;;;2.47;;
21251;SDS011;10784;50.578;17.878;2023-02-01T09:09:13;11.68;;;2.47;;
21251;SDS011;10784;50.578;17.878;2023-02-01T09:11:45;3.53;;;2.15;;
21251;SDS011;10784;50.578;17.878;2023-02-01T09:14:18;9.95;;;2.25;;
21251;SDS011;10784;50.578;17.878;2023-02-01T09:16:51;18.70;;;4.57;;
21251;SDS011;10784;50.578;17.878;2023-02-01T09:19:23;5.70;;;2.42;;
21251;SDS011;10784;50.578;17.878;2023-02-01T09:21:58;12.90;;;2.97;;
21251;SDS011;10784;50.578;17.878;2023-02-01T09:24:31;6.05;;;2.03;;
21251;SDS011;10784;50.578;17.878;2023-02-01T09:27:04;5.88;;;2.70;;
21251;SDS011;10784;50.578;17.878;2023-02-01T09:29:36;8.27;;;2.63;;
21251;SDS011;10784;50.578;17.878;2023-02-01T09:32:09;8.13;;;2.40;;
21251;SDS011;10784;50.578;17.878;2023-02-01T09:34:43;5.38;;;2.30;;
21251;SDS011;10784;50.578;17.878;2023-02-01T09:37:15;11.93;;;2.70;;
21251;SDS011;10784;50.578;17.878;2023-02-01T09:39:48;9.70;;;3.17;;
21251;SDS011;10784;50.578;17.878;2023-02-01T09:42:35;16.05;;;2.50;;
21251;SDS011;10784;50.578;17.878;2023-02-01T09:45:24;9.68;;;3.47;;
21251;SDS011;10784;50.578;17.878;2023-02-01T09:48:01;5.97;;;2.42;;
21251;SDS011;10784;50.578;17.878;2023-02-01T09:50:36;12.70;;;3.63;;
21251;SDS011;10784;50.578;17.878;2023-02-01T09:53:18;13.07;;;4.07;;
21251;SDS011;10784;50.578;17.878;2023-02-01T09:55:54;5.57;;;2.30;;
21251;SDS011;10784;50.578;17.878;2023-02-01T09:58:38;14.75;;;5.63;;
21251;SDS011;10784;50.578;17.878;2023-02-01T10:01:16;14.80;;;5.72;;
21251;SDS011;10784;50.578;17.878;2023-02-01T10:03:51;33.83;;;8.20;;
21251;SDS011;10784;50.578;17.878;2023-02-01T10:11:53;18.05;;;4.75;;
21251;SDS011;10784;50.578;17.878;2023-02-01T10:25:32;5.85;;;2.42;;
21251;SDS011;10784;50.578;17.878;2023-02-01T10:28:07;4.63;;;2.22;;
21251;SDS011;10784;50.578;17.878;2023-02-01T10:30:45;6.25;;;2.45;;
21251;SDS011;10784;50.578;17.878;2023-02-01T10:33:22;4.00;;;1.90;;
21251;SDS011;10784;50.578;17.878;2023-02-01T10:38:51;2.60;;;1.77;;
21251;SDS011;10784;50.578;17.878;2023-02-01T10:41:28;1.45;;;1.35;;
21251;SDS011;10784;50.578;17.878;2023-02-01T10:44:03;6.30;;;1.95;;
21251;SDS011;10784;50.578;17.878;2023-02-01T10:46:41;4.63;;;1.85;;
21251;SDS011;10784;50.578;17.878;2023-02-01T10:49:32;7.15;;;2.30;;
21251;SDS011;10784;50.578;17.878;2023-02-01T10:54:39;3.30;;;2.15;;
21251;SDS011;10784;50.578;17.878;2023-02-01T10:57:20;5.47;;;2.20;;
21251;SDS011;10784;50.578;17.878;2023-02-01T10:59:53;14.45;;;2.95;;
21251;SDS011;10784;50.578;17.878;2023-02-01T11:02:29;6.45;;;2.55;;
21251;SDS011;10784;50.578;17.878;2023-02-01T11:05:04;1.48;;;1.08;;
21251;SDS011;10784;50.578;17.878;2023-02-01T11:07:46;3.88;;;1.35;;
21251;SDS011;10784;50.578;17.878;2023-02-01T11:10:38;2.80;;;1.40;;
21251;SDS011;10784;50.578;17.878;2023-02-01T11:13:15;2.83;;;1.63;;
21251;SDS011;10784;50.578;17.878;2023-02-01T11:15:54;8.50;;;2.17;;
21251;SDS011;10784;50.578;17.878;2023-02-01T11:18:29;7.50;;;3.78;;
21251;SDS011;10784;50.578;17.878;2023-02-01T11:21:02;5.63;;;2.45;;
21251;SDS011;10784;50.578;17.878;2023-02-01T11:23:39;7.35;;;2.85;;
21251;SDS011;10784;50.578;17.878;2023-02-01T11:28:50;7.13;;;2.42;;
21251;SDS011;10784;50.578;17.878;2023-02-01T11:31:23;7.85;;;2.45;;
21251;SDS011;10784;50.578;17.878;2023-02-01T11:34:04;4.38;;;2.13;;
21251;SDS011;10784;50.578;17.878;2023-02-01T11:36:38;7.10;;;2.33;;
21251;SDS011;10784;50.578;17.878;2023-02-01T11:41:58;7.53;;;2.40;;
21251;SDS011;10784;50.578;17.878;2023-02-01T11:44:33;12.70;;;4.55;;
21251;SDS011;10784;50.578;17.878;2023-02-01T11:50:00;9.57;;;3.22;;
21251;SDS011;10784;50.578;17.878;2023-02-01T11:52:54;11.15;;;3.78;;
21251;SDS011;10784;50.578;17.878;2023-02-01T12:01:26;4.25;;;2.40;;
21251;SDS011;10784;50.578;17.878;2023-02-01T12:03:47;4.97;;;2.53;;
21251;SDS011;10784;50.578;17.878;2023-02-01T12:11:46;3.83;;;2.20;;
21251;SDS011;10784;50.578;17.878;2023-02-01T12:17:21;5.80;;;3.13;;
21251;SDS011;10784;50.578;17.878;2023-02-01T12:36:16;13.30;;;2.75;;
21251;SDS011;10784;50.578;17.878;2023-02-01T12:49:10;4.32;;;1.98;;
21251;SDS011;10784;50.578;17.878;2023-02-01T12:51:44;10.20;;;2.35;;
21251;SDS011;10784;50.578;17.878;2023-02-01T12:54:20;5.47;;;2.08;;
21251;SDS011;10784;50.578;17.878;2023-02-01T12:56:55;2.88;;;1.52;;
21251;SDS011;10784;50.578;17.878;2023-02-01T12:59:34;2.60;;;1.20;;
21251;SDS011;10784;50.578;17.878;2023-02-01T13:02:22;1.58;;;0.95;;
21251;SDS011;10784;50.578;17.878;2023-02-01T13:07:41;5.50;;;1.65;;
21251;SDS011;10784;50.578;17.878;2023-02-01T13:13:07;1.73;;;1.08;;
21251;SDS011;10784;50.578;17.878;2023-02-01T13:15:44;8.95;;;3.05;;
21251;SDS011;10784;50.578;17.878;2023-02-01T13:18:18;6.85;;;1.35;;
21251;SDS011;10784;50.578;17.878;2023-02-01T13:20:56;3.53;;;2.10;;
21251;SDS011;10784;50.578;17.878;2023-02-01T13:23:31;5.78;;;2.03;;
21251;SDS011;10784;50.578;17.878;2023-02-01T13:26:06;4.05;;;1.77;;
21251;SDS011;10784;50.578;17.878;2023-02-01T13:42:02;12.10;;;2.80;;
21251;SDS011;10784;50.578;17.878;2023-02-01T13:44:39;5.45;;;1.75;;
21251;SDS011;10784;50.578;17.878;2023-02-01T13:49:55;6.72;;;1.55;;
21251;SDS011;10784;50.578;17.878;2023-02-01T13:52:36;4.78;;;2.80;;
21251;SDS011;10784;50.578;17.878;2023-02-01T13:57:46;5.43;;;2.08;;
21251;SDS011;10784;50.578;17.878;2023-02-01T14:21:33;4.38;;;2.45;;
21251;SDS011;10784;50.578;17.878;2023-02-01T14:26:45;3.75;;;2.13;;
21251;SDS011;10784;50.578;17.878;2023-02-01T14:29:22;5.10;;;1.92;;
21251;SDS011;10784;50.578;17.878;2023-02-01T14:32:11;4.60;;;1.75;;
21251;SDS011;10784;50.578;17.878;2023-02-01T14:34:52;4.82;;;2.70;;
21251;SDS011;10784;50.578;17.878;2023-02-01T14:37:31;6.88;;;2.08;;
21251;SDS011;10784;50.578;17.878;2023-02-01T14:42:45;6.82;;;2.60;;
21251;SDS011;10784;50.578;17.878;2023-02-01T14:47:55;9.73;;;3.88;;
21251;SDS011;10784;50.578;17.878;2023-02-01T14:50:47;6.32;;;2.80;;
21251;SDS011;10784;50.578;17.878;2023-02-01T14:53:32;4.38;;;2.92;;
21251;SDS011;10784;50.578;17.878;2023-02-01T15:01:28;10.18;;;3.17;;
21251;SDS011;10784;50.578;17.878;2023-02-01T15:04:06;11.07;;;3.30;;
21251;SDS011;10784;50.578;17.878;2023-02-01T15:06:48;3.70;;;1.88;;
21251;SDS011;10784;50.578;17.878;2023-02-01T15:14:34;22.60;;;7.97;;
21251;SDS011;10784;50.578;17.878;2023-02-01T15:17:25;97.97;;;26.65;;
21251;SDS011;10784;50.578;17.878;2023-02-01T15:19:59;31.33;;;9.15;;
21251;SDS011;10784;50.578;17.878;2023-02-01T15:22:32;16.55;;;4.68;;
21251;SDS011;10784;50.578;17.878;2023-02-01T15:25:17;12.30;;;5.57;;
21251;SDS011;10784;50.578;17.878;2023-02-01T15:27:51;16.85;;;4.75;;
21251;SDS011;10784;50.578;17.878;2023-02-01T15:30:25;8.93;;;4.65;;
21251;SDS011;10784;50.578;17.878;2023-02-01T15:33:14;14.65;;;4.35;;
21251;SDS011;10784;50.578;17.878;2023-02-01T15:35:49;11.43;;;3.00;;
21251;SDS011;10784;50.578;17.878;2023-02-01T15:41:05;5.28;;;1.77;;
21251;SDS011;10784;50.578;17.878;2023-02-01T15:43:41;3.28;;;1.33;;
21251;SDS011;10784;50.578;17.878;2023-02-01T15:46:15;9.38;;;2.10;;
21251;SDS011;10784;50.578;17.878;2023-02-01T15:48:49;4.22;;;1.73;;
21251;SDS011;10784;50.578;17.878;2023-02-01T15:51:23;1.52;;;1.42;;
21251;SDS011;10784;50.578;17.878;2023-02-01T15:53:58;3.08;;;1.60;;
21251;SDS011;10784;50.578;17.878;2023-02-01T15:56:38;5.78;;;2.70;;
21251;SDS011;10784;50.578;17.878;2023-02-01T15:59:15;10.07;;;4.22;;
21251;SDS011;10784;50.578;17.878;2023-02-01T16:01:48;6.63;;;2.58;;
21251;SDS011;10784;50.578;17.878;2023-02-01T16:04:26;14.20;;;5.00;;
21251;SDS011;10784;50.578;17.878;2023-02-01T16:07:02;40.30;;;6.82;;
21251;SDS011;10784;50.578;17.878;2023-02-01T16:09:41;33.78;;;8.60;;
21251;SDS011;10784;50.578;17.878;2023-02-01T16:12:31;23.83;;;6.07;;
21251;SDS011;10784;50.578;17.878;2023-02-01T16:15:06;9.45;;;5.05;;
21251;SDS011;10784;50.578;17.878;2023-02-01T16:17:39;10.48;;;3.25;;
21251;SDS011;10784;50.578;17.878;2023-02-01T16:20:12;13.65;;;4.57;;
21251;SDS011;10784;50.578;17.878;2023-02-01T16:22:45;24.13;;;6.30;;
21251;SDS011;10784;50.578;17.878;2023-02-01T16:25:18;20.42;;;5.90;;
21251;SDS011;10784;50.578;17.878;2023-02-01T16:27:50;20.42;;;5.93;;
21251;SDS011;10784;50.578;17.878;2023-02-01T16:30:23;30.33;;;8.68;;
21251;SDS011;10784;50.578;17.878;2023-02-01T16:32:57;11.15;;;5.60;;
21251;SDS011;10784;50.578;17.878;2023-02-01T16:35:34;20.08;;;5.38;;
21251;SDS011;10784;50.578;17.878;2023-02-01T16:38:11;13.48;;;5.18;;
21251;SDS011;10784;50.578;17.878;2023-02-01T16:40:48;46.85;;;12.32;;
21251;SDS011;10784;50.578;17.878;2023-02-01T16:43:21;26.25;;;6.78;;
21251;SDS011;10784;50.578;17.878;2023-02-01T16:45:55;38.75;;;7.53;;
21251;SDS011;10784;50.578;17.878;2023-02-01T16:48:32;30.80;;;7.40;;
21251;SDS011;10784;50.578;17.878;2023-02-01T16:51:10;53.00;;;14.70;;
21251;SDS011;10784;50.578;17.878;2023-02-01T16:53:44;53.92;;;14.50;;
21251;SDS011;10784;50.578;17.878;2023-02-01T16:56:32;35.00;;;10.75;;
21251;SDS011;10784;50.578;17.878;2023-02-01T16:59:05;50.00;;;15.02;;
21251;SDS011;10784;50.578;17.878;2023-02-01T17:01:38;43.35;;;10.85;;
21251;SDS011;10784;50.578;17.878;2023-02-01T17:04:12;40.05;;;11.90;;
21251;SDS011;10784;50.578;17.878;2023-02-01T17:06:45;26.55;;;9.13;;
21251;SDS011;10784;50.578;17.878;2023-02-01T17:09:21;13.68;;;5.00;;
21251;SDS011;10784;50.578;17.878;2023-02-01T17:11:54;17.73;;;6.78;;
21251;SDS011;10784;50.578;17.878;2023-02-01T17:14:29;9.88;;;4.35;;
21251;SDS011;10784;50.578;17.878;2023-02-01T17:17:03;16.67;;;4.82;;
21251;SDS011;10784;50.578;17.878;2023-02-01T17:19:35;6.25;;;3.10;;
21251;SDS011;10784;50.578;17.878;2023-02-01T17:22:08;8.90;;;2.72;;
21251;SDS011;10784;50.578;17.878;2023-02-01T17:24:41;9.55;;;2.55;;
21251;SDS011;10784;50.578;17.878;2023-02-01T17:27:20;4.63;;;1.92;;
21251;SDS011;10784;50.578;17.878;2023-02-01T17:29:52;5.90;;;2.45;;
21251;SDS011;10784;50.578;17.878;2023-02-01T17:32:28;5.78;;;3.25;;
21251;SDS011;10784;50.578;17.878;2023-02-01T17:35:01;3.90;;;2.67;;
21251;SDS011;10784;50.578;17.878;2023-02-01T17:37:34;12.02;;;3.97;;
21251;SDS011;10784;50.578;17.878;2023-02-01T17:40:09;6.57;;;2.95;;
21251;SDS011;10784;50.578;17.878;2023-02-01T17:42:42;19.52;;;5.75;;
21251;SDS011;10784;50.578;17.878;2023-02-01T17:47:48;15.23;;;5.75;;
21251;SDS011;10784;50.578;17.878;2023-02-01T17:50:21;18.70;;;5.25;;
21251;SDS011;10784;50.578;17.878;2023-02-01T17:52:54;87.88;;;27.23;;
21251;SDS011;10784;50.578;17.878;2023-02-01T17:55:39;25.77;;;7.70;;
21251;SDS011;10784;50.578;17.878;2023-02-01T17:58:13;35.08;;;10.30;;
21251;SDS011;10784;50.578;17.878;2023-02-01T18:00:47;35.67;;;13.15;;
21251;SDS011;10784;50.578;17.878;2023-02-01T18:05:54;23.38;;;11.13;;
21251;SDS011;10784;50.578;17.878;2023-02-01T18:08:29;16.15;;;8.27;;